Salem, IL

2:06 AM CDT on August 25, 2016 (GMT -0500)
Salem-Leckrone

Weather History for KSLO - January, 2012

Change the Weather History Date:

Thursday, January 5, 2012

  Actual Average Record
Temperature  
Mean Temperature 42 °F -  
Max Temperature 58 °F 36 °F 58 °F (2012)
Min Temperature 27 °F 19 °F -8 °F (1959)
Degree Days  
Heating Degree Days 22    
Moisture  
Dew Point 27 °F    
Average Humidity 59    
Maximum Humidity 90    
Minimum Humidity 30    
Precipitation  
Precipitation 0.00 in - - ()
Sea Level Pressure  
Sea Level Pressure 30.06 in    
Wind  
Wind Speed 7 mph (SSW)    
Max Wind Speed 17 mph    
Max Gust Speed 25 mph    
Visibility 10 miles    
Events      
Averages and records for this station are not official NWS values.
T = Trace of Precipitation, MM = Missing Value Source: NWS Daily Summary

Daily Weather History Graph

Daily Weather History Graph

Search for Another Location

Airport or City:

Trip Planner

Search our weather history database for the weather conditions in past years. The results will help you decide how hot, cold, wet, or windy it might be!

Date:

Astronomy

Jan. 05, 2012 Rise Set
Actual Time 7:14 AM CST 4:48 PM CST
Civil Twilight 6:44 AM CST 5:17 PM CST
Nautical Twilight 6:11 AM CST 5:51 PM CST
Astronomical Twilight 5:39 AM CST 6:23 PM CST
Moon 1:52 PM CST (1/5) 3:59 AM CST (1/5)
Length of Visible Light 10h 33m
Length of Day
9h 34m
Waxing Gibbous, 88% of the Moon is Illuminated
Jan 5
Waxing Gibbous
Jan 9
Full
Jan 16
Last Quarter
Jan 23
New
Jan 30
First Quarter

Hourly Weather History & Observations

Time (CST) Temp. Windchill Dew Point Humidity Pressure Visibility Wind Dir Wind Speed Gust Speed Precip Events Conditions
12:15 AM 30.7 °F 24.1 °F 24.6 °F 78% 30.14 in 10.0 mi WSW 6.9 mph - N/A   Clear
12:35 AM 32.0 °F 26.4 °F 25.0 °F 75% 30.14 in 10.0 mi WSW 5.8 mph - N/A   Clear
12:55 AM 32.0 °F 27.5 °F 25.3 °F 76% 30.14 in 10.0 mi West 4.6 mph - N/A   Clear
1:15 AM 31.5 °F 26.8 °F 24.8 °F 76% 30.13 in 10.0 mi West 4.6 mph - N/A   Clear
1:35 AM 30.9 °F 26.2 °F 24.6 °F 77% 30.13 in 10.0 mi WSW 4.6 mph - N/A   Clear
1:55 AM 30.0 °F 25.2 °F 24.3 °F 79% 30.14 in 10.0 mi WSW 4.6 mph - N/A   Clear
2:15 AM 31.1 °F - 24.8 °F 77% 30.13 in 10.0 mi Calm Calm - N/A   Clear
2:35 AM 31.1 °F 26.4 °F 25.0 °F 78% 30.13 in 10.0 mi WSW 4.6 mph - N/A   Clear
2:55 AM 29.3 °F 23.2 °F 24.1 °F 81% 30.13 in 10.0 mi WSW 5.8 mph - N/A   Clear
3:15 AM 31.1 °F 27.7 °F 25.0 °F 78% 30.13 in 10.0 mi SSW 3.5 mph - N/A   Clear
3:35 AM 31.8 °F 28.5 °F 25.3 °F 77% 30.13 in 10.0 mi South 3.5 mph - N/A   Clear
3:55 AM 30.4 °F - 25.3 °F 82% 30.13 in 10.0 mi Calm Calm - N/A   Clear
4:15 AM 29.1 °F - 24.4 °F 83% 30.13 in 10.0 mi Calm Calm - N/A   Clear
4:35 AM 28.6 °F - 25.5 °F 88% 30.13 in 10.0 mi Calm Calm - N/A   Clear
4:55 AM 28.6 °F 24.8 °F 25.2 °F 87% 30.14 in 10.0 mi South 3.5 mph - N/A   Clear
5:15 AM 28.0 °F 24.2 °F 25.3 °F 90% 30.14 in 10.0 mi South 3.5 mph - N/A   Clear
5:35 AM 28.0 °F - 24.4 °F 86% 30.13 in 10.0 mi Calm Calm - N/A   Clear
5:55 AM 27.5 °F 22.2 °F 24.1 °F 87% 30.13 in 10.0 mi South 4.6 mph - N/A   Clear
6:15 AM 31.5 °F 25.8 °F 25.3 °F 78% 30.13 in 10.0 mi South 5.8 mph - N/A   Clear
6:35 AM 32.0 °F 26.4 °F 24.8 °F 75% 30.13 in 10.0 mi South 5.8 mph - N/A   Clear
6:55 AM 32.0 °F 26.4 °F 24.8 °F 75% 30.13 in 10.0 mi South 5.8 mph - N/A   Clear
7:15 AM 31.6 °F 26.0 °F 24.8 °F 76% 30.13 in 10.0 mi South 5.8 mph - N/A   Clear
7:35 AM 31.5 °F 24.9 °F 24.8 °F 76% 30.13 in 10.0 mi South 6.9 mph - N/A   Clear
7:55 AM 32.2 °F 25.0 °F 25.5 °F 76% 30.12 in 10.0 mi South 8.1 mph - N/A   Clear
8:15 AM 33.8 °F 27.0 °F 26.6 °F 75% 30.12 in 10.0 mi South 8.1 mph - N/A   Clear
8:35 AM 35.4 °F 27.8 °F 27.0 °F 71% 30.12 in 10.0 mi South 10.4 mph - N/A   Clear
8:55 AM 37.4 °F 30.3 °F 26.6 °F 65% 30.11 in 10.0 mi SSW 10.4 mph - N/A   Clear
9:15 AM 39.2 °F 34.2 °F 26.6 °F 61% 30.12 in 10.0 mi SSW 6.9 mph - N/A   Clear
9:35 AM 41.4 °F 35.7 °F 27.5 °F 58% 30.11 in 10.0 mi SSW 9.2 mph - N/A   Clear
9:55 AM 44.1 °F 37.7 °F 27.1 °F 51% 30.10 in 10.0 mi SSW 12.7 mph - N/A   Clear
10:15 AM 45.9 °F 39.7 °F 27.0 °F 48% 30.10 in 10.0 mi SSW 13.8 mph - N/A   Clear
10:35 AM 48.2 °F - 26.6 °F 43% 30.08 in 10.0 mi SW 11.5 mph - N/A   Clear
10:55 AM 49.3 °F - 26.8 °F 42% 30.07 in 10.0 mi SW 15.0 mph - N/A   Clear
11:15 AM 50.7 °F - 27.9 °F 41% 30.06 in 10.0 mi SW 11.5 mph 17.3 mph N/A   Clear
11:35 AM 52.0 °F - 27.3 °F 39% 30.05 in 10.0 mi WSW 16.1 mph - N/A   Clear
11:55 AM 53.6 °F - 27.9 °F 37% 30.03 in 10.0 mi WSW 15.0 mph 18.4 mph N/A   Clear
12:15 PM 54.5 °F - 27.0 °F 35% 30.02 in 10.0 mi WSW 13.8 mph - N/A   Clear
12:35 PM 55.8 °F - 27.9 °F 34% 30.00 in 10.0 mi WSW 12.7 mph - N/A   Clear
12:55 PM 56.3 °F - 27.1 °F 33% 30.00 in 10.0 mi SW 15.0 mph 21.9 mph N/A   Clear
1:15 PM 57.0 °F - 26.2 °F 31% 29.98 in 10.0 mi SW 17.3 mph 25.3 mph N/A   Clear
1:35 PM 57.2 °F - 27.0 °F 31% 29.97 in 10.0 mi SW 16.1 mph - N/A   Clear
1:55 PM 57.6 °F - 27.0 °F 31% 29.97 in 10.0 mi SW 15.0 mph 21.9 mph N/A   Clear
2:15 PM 58.1 °F - 26.8 °F 30% 29.96 in 10.0 mi SW 13.8 mph - N/A   Clear
2:35 PM 58.6 °F - 27.3 °F 30% 29.96 in 10.0 mi SW 12.7 mph - N/A   Clear
2:55 PM 58.8 °F - 27.3 °F 30% 29.95 in 10.0 mi SW 11.5 mph - N/A   Clear
3:15 PM 58.5 °F - 28.4 °F 32% 29.95 in 10.0 mi SSW 12.7 mph 19.6 mph N/A   Clear
3:35 PM 58.3 °F - 28.8 °F 33% 29.95 in 10.0 mi SSW 10.4 mph - N/A   Clear
3:55 PM 56.7 °F - 29.7 °F 36% 29.95 in 10.0 mi SSW 12.7 mph 16.1 mph N/A   Clear
4:15 PM 55.0 °F - 31.1 °F 40% 29.95 in 10.0 mi SSW 10.4 mph - N/A   Clear
4:35 PM 53.6 °F - 30.7 °F 42% 29.95 in 10.0 mi SSW 12.7 mph - N/A   Clear
4:55 PM 52.3 °F - 30.2 °F 43% 29.95 in 10.0 mi SSW 11.5 mph - N/A   Clear
5:15 PM 48.9 °F - 30.7 °F 50% 29.95 in 10.0 mi South 8.1 mph - N/A   Clear
5:35 PM 48.2 °F - 30.4 °F 50% 29.96 in 10.0 mi South 9.2 mph - N/A   Clear
5:55 PM 47.5 °F - 30.6 °F 52% 29.95 in 10.0 mi South 11.5 mph - N/A   Clear
6:15 PM 47.5 °F - 30.6 °F 52% 29.95 in 10.0 mi South 9.2 mph - N/A   Clear
6:35 PM 46.9 °F - 30.4 °F 53% 29.95 in 10.0 mi SSW 10.4 mph - N/A   Clear
6:55 PM 45.9 °F 40.8 °F 30.6 °F 55% 29.95 in 10.0 mi South 10.4 mph - N/A   Clear
7:15 PM 46.8 °F - 31.1 °F 55% 29.95 in 10.0 mi SSW 11.5 mph - N/A   Clear
7:35 PM 47.5 °F - 31.1 °F 53% 29.94 in 10.0 mi SSW 13.8 mph - N/A   Clear
7:55 PM 48.0 °F - 31.3 °F 52% 29.94 in 10.0 mi SSW 13.8 mph - N/A   Clear
8:15 PM 47.3 °F - 31.6 °F 55% 29.93 in 10.0 mi SSW 15.0 mph - N/A   Clear
8:35 PM 47.1 °F - 32.0 °F 56% 29.93 in 10.0 mi SSW 13.8 mph 19.6 mph N/A   Clear
8:55 PM 47.1 °F - 32.0 °F 56% 29.93 in 10.0 mi SSW 15.0 mph 21.9 mph N/A   Clear
9:15 PM 47.3 °F - 32.0 °F 55% 29.93 in 10.0 mi SSW 15.0 mph 20.7 mph N/A   Clear
9:35 PM 47.1 °F - 31.6 °F 55% 29.93 in 10.0 mi SSW 13.8 mph - N/A   Clear
9:55 PM 46.8 °F - 31.8 °F 56% 29.92 in 10.0 mi SSW 12.7 mph - N/A   Clear
10:15 PM 45.7 °F 40.2 °F 31.6 °F 58% 29.92 in 10.0 mi SSW 11.5 mph - N/A   Clear
10:35 PM 45.5 °F 39.9 °F 31.6 °F 58% 29.92 in 10.0 mi SSW 11.5 mph - N/A   Clear
10:55 PM 46.4 °F 41.1 °F 32.0 °F 57% 29.92 in 10.0 mi SSW 11.5 mph - N/A   Clear
11:15 PM 45.0 °F 40.1 °F 31.5 °F 59% 29.91 in 10.0 mi SSW 9.2 mph - N/A   Clear
11:35 PM 44.2 °F 39.2 °F 31.1 °F 60% 29.91 in 10.0 mi SSW 9.2 mph - N/A   Clear
11:55 PM 43.9 °F 38.8 °F 30.9 °F 60% 29.90 in 10.0 mi SSW 9.2 mph - N/A   Clear